Time,TemperatureF,DewpointF,PressureIn,WindDirection,WindDirectionDegrees,WindSpeedMPH,WindSpeedGustMPH,Humidity,HourlyPrecipIn,Conditions,Clouds,dailyrainin,SoftwareType,DateUTC
2013-01-31 00:12:00,38.8,33.0,29.70,NNW,347,0.0,-999.0,80,-99.99,,,0.00,weatherlink.com 1.10,2013-01-31 05:12:00,
2013-01-31 00:27:00,38.5,33.0,29.71,SSE,159,5.0,-999.0,81,-99.99,,,0.00,weatherlink.com 1.10,2013-01-31 05:27:00,
2013-01-31 00:42:00,38.0,32.0,29.73,SSW,194,1.0,-999.0,79,-99.99,,,0.00,weatherlink.com 1.10,2013-01-31 05:42:00,
2013-01-31 00:57:00,37.8,31.0,29.74,South,177,3.0,-999.0,76,-99.99,,,0.00,weatherlink.com 1.10,2013-01-31 05:57:00,
2013-01-31 01:12:00,37.4,30.0,29.74,SSE,162,3.0,-999.0,74,-99.99,,,0.00,weatherlink.com 1.10,2013-01-31 06:12:00,
2013-01-31 01:27:00,37.1,30.0,29.75,SW,230,0.0,-999.0,76,-99.99,,,0.00,weatherlink.com 1.10,2013-01-31 06:27:00,
2013-01-31 01:43:00,36.3,28.0,29.77,West,259,0.0,-999.0,72,-99.99,,,0.00,weatherlink.com 1.10,2013-01-31 06:43:00,
2013-01-31 01:58:00,35.6,27.0,29.77,NNW,337,0.0,-999.0,72,-99.99,,,0.00,weatherlink.com 1.10,2013-01-31 06:58:00,
2013-01-31 02:13:00,35.1,25.0,29.79,NNW,329,7.0,-999.0,68,-99.99,,,0.00,weatherlink.com 1.10,2013-01-31 07:13:00,
2013-01-31 02:28:00,34.4,25.0,29.80,NNW,341,0.0,-999.0,68,-99.99,,,0.00,weatherlink.com 1.10,2013-01-31 07:28:00,
2013-01-31 02:43:00,34.1,25.0,29.82,WSW,240,0.0,-999.0,68,-99.99,,,0.00,weatherlink.com 1.10,2013-01-31 07:43:00,
2013-01-31 02:58:00,33.8,24.0,29.81,NW,321,12.0,-999.0,67,-99.99,,,0.00,weatherlink.com 1.10,2013-01-31 07:58:00,
2013-01-31 03:13:00,33.6,24.0,29.82,WNW,303,0.0,-999.0,67,-99.99,,,0.00,weatherlink.com 1.10,2013-01-31 08:13:00,
2013-01-31 03:28:00,33.5,25.0,29.83,North,360,0.0,-999.0,70,-99.99,,,0.00,weatherlink.com 1.10,2013-01-31 08:28:00,
2013-01-31 03:43:00,33.4,25.0,29.83,West,281,3.0,-999.0,71,-99.99,,,0.00,weatherlink.com 1.10,2013-01-31 08:43:00,
2013-01-31 03:58:00,33.3,24.0,29.83,NNW,334,10.0,-999.0,70,-99.99,,,0.00,weatherlink.com 1.10,2013-01-31 08:58:00,
2013-01-31 04:13:00,33.2,25.0,29.83,NNW,348,15.0,-999.0,73,-99.99,,,0.00,weatherlink.com 1.10,2013-01-31 09:13:00,
2013-01-31 04:28:00,33.1,25.0,29.83,NNW,337,3.0,-999.0,72,-99.99,,,0.00,weatherlink.com 1.10,2013-01-31 09:28:00,
2013-01-31 04:43:00,33.0,26.0,29.84,NNW,337,0.0,-999.0,74,-99.99,,,0.00,weatherlink.com 1.10,2013-01-31 09:43:00,
2013-01-31 04:58:00,32.9,25.0,29.85,NW,324,1.0,-999.0,73,-99.99,,,0.00,weatherlink.com 1.10,2013-01-31 09:58:00,
2013-01-31 05:13:00,32.9,25.0,29.86,SSW,213,0.0,-999.0,74,-99.99,,,0.00,weatherlink.com 1.10,2013-01-31 10:13:00,
2013-01-31 05:28:00,32.7,25.0,29.86,NW,309,0.0,-999.0,73,-99.99,,,0.00,weatherlink.com 1.10,2013-01-31 10:28:00,
2013-01-31 05:43:00,32.5,25.0,29.88,SSE,148,0.0,-999.0,73,-99.99,,,0.00,weatherlink.com 1.10,2013-01-31 10:43:00,
2013-01-31 05:58:00,32.4,25.0,29.88,South,170,0.0,-999.0,75,-99.99,,,0.00,weatherlink.com 1.10,2013-01-31 10:58:00,
2013-01-31 06:13:00,32.2,25.0,29.90,South,173,0.0,-999.0,75,-99.99,,,0.00,weatherlink.com 1.10,2013-01-31 11:13:00,
2013-01-31 06:28:00,32.1,25.0,29.91,SSW,203,0.0,-999.0,74,-99.99,,,0.00,weatherlink.com 1.10,2013-01-31 11:28:00,
2013-01-31 06:43:00,31.9,25.0,29.92,NNW,327,1.0,-999.0,75,-99.99,,,0.00,weatherlink.com 1.10,2013-01-31 11:43:00,
2013-01-31 06:58:00,31.5,24.0,29.92,NW,325,0.0,-999.0,74,-99.99,,,0.00,weatherlink.com 1.10,2013-01-31 11:58:00,
2013-01-31 07:13:00,31.3,24.0,29.92,NNW,334,0.0,-999.0,75,-99.99,,,0.00,weatherlink.com 1.10,2013-01-31 12:13:00,
2013-01-31 07:28:00,31.3,24.0,29.93,SW,234,0.0,-999.0,74,-99.99,,,0.00,weatherlink.com 1.10,2013-01-31 12:28:00,
2013-01-31 07:43:00,31.4,24.0,29.94,SW,217,0.0,-999.0,73,-99.99,,,0.00,weatherlink.com 1.10,2013-01-31 12:43:00,
2013-01-31 07:58:00,31.1,24.0,29.95,NNW,333,0.0,-999.0,75,-99.99,,,0.00,weatherlink.com 1.10,2013-01-31 12:58:00,
2013-01-31 08:13:00,31.1,24.0,29.96,NW,316,0.0,-999.0,75,-99.99,,,0.00,weatherlink.com 1.10,2013-01-31 13:13:00,
2013-01-31 08:28:00,31.1,24.0,29.97,WNW,299,4.0,-999.0,75,-99.99,,,0.00,weatherlink.com 1.10,2013-01-31 13:28:00,
2013-01-31 08:44:00,31.2,24.0,29.97,ENE,58,0.0,-999.0,74,-99.99,,,0.00,weatherlink.com 1.10,2013-01-31 13:44:00,
2013-01-31 08:59:00,31.0,24.0,29.97,NNW,336,0.0,-999.0,76,-99.99,,,0.00,weatherlink.com 1.10,2013-01-31 13:59:00,
2013-01-31 09:14:00,30.8,23.0,29.98,SSE,162,5.0,-999.0,74,-99.99,,,0.00,weatherlink.com 1.10,2013-01-31 14:14:00,
2013-01-31 09:29:00,31.3,24.0,29.98,NNW,329,3.0,-999.0,73,-99.99,,,0.00,weatherlink.com 1.10,2013-01-31 14:29:00,
2013-01-31 09:44:00,31.6,24.0,29.98,NW,306,0.0,-999.0,72,-99.99,,,0.00,weatherlink.com 1.10,2013-01-31 14:44:00,
2013-01-31 09:59:00,32.3,25.0,29.99,South,169,4.0,-999.0,73,-99.99,,,0.00,weatherlink.com 1.10,2013-01-31 14:59:00,
2013-01-31 10:14:00,32.6,24.0,30.00,WSW,239,2.0,-999.0,71,-99.99,,,0.00,weatherlink.com 1.10,2013-01-31 15:14:00,
2013-01-31 10:29:00,32.9,24.0,30.00,North,355,2.0,-999.0,69,-99.99,,,0.00,weatherlink.com 1.10,2013-01-31 15:29:00,
2013-01-31 10:44:00,34.2,25.0,30.01,North,10,0.0,-999.0,70,-99.99,,,0.00,weatherlink.com 1.10,2013-01-31 15:44:00,
2013-01-31 10:59:00,34.4,25.0,30.01,SSE,168,2.0,-999.0,68,-99.99,,,0.00,weatherlink.com 1.10,2013-01-31 15:59:00,
2013-01-31 11:14:00,35.7,26.0,30.02,South,190,4.0,-999.0,69,-99.99,,,0.00,weatherlink.com 1.10,2013-01-31 16:14:00,
2013-01-31 11:29:00,35.7,25.0,30.03,NW,324,2.0,-999.0,65,-99.99,,,0.00,weatherlink.com 1.10,2013-01-31 16:29:00,
2013-01-31 11:44:00,35.9,25.0,30.04,WNW,297,4.0,-999.0,64,-99.99,,,0.00,weatherlink.com 1.10,2013-01-31 16:44:00,
2013-01-31 11:59:00,36.3,25.0,30.03,NNW,336,0.0,-999.0,63,-99.99,,,0.00,weatherlink.com 1.10,2013-01-31 16:59:00,
2013-01-31 12:14:00,36.8,26.0,30.04,NNW,329,4.0,-999.0,65,-99.99,,,0.00,weatherlink.com 1.10,2013-01-31 17:14:00,
2013-01-31 12:29:00,37.5,25.0,30.05,West,259,2.0,-999.0,62,-99.99,,,0.00,weatherlink.com 1.10,2013-01-31 17:29:00,
2013-01-31 12:44:00,39.2,27.0,30.05,NNW,347,1.0,-999.0,61,-99.99,,,0.00,weatherlink.com 1.10,2013-01-31 17:44:00,
2013-01-31 12:59:00,38.1,23.0,30.04,WNW,298,3.0,-999.0,56,-99.99,,,0.00,weatherlink.com 1.10,2013-01-31 17:59:00,
2013-01-31 13:14:00,39.1,24.0,30.04,NNW,336,13.0,-999.0,56,-99.99,,,0.00,weatherlink.com 1.10,2013-01-31 18:14:00,
2013-01-31 13:29:00,39.6,24.0,30.04,NW,311,4.0,-999.0,55,-99.99,,,0.00,weatherlink.com 1.10,2013-01-31 18:29:00,
2013-01-31 13:44:00,40.6,24.0,30.05,SSW,209,3.0,-999.0,53,-99.99,,,0.00,weatherlink.com 1.10,2013-01-31 18:44:00,
2013-01-31 13:59:00,40.6,25.0,30.04,North,355,4.0,-999.0,55,-99.99,,,0.00,weatherlink.com 1.10,2013-01-31 18:59:00,
2013-01-31 14:14:00,40.3,23.0,30.04,NNW,330,0.0,-999.0,51,-99.99,,,0.00,weatherlink.com 1.10,2013-01-31 19:14:00,
2013-01-31 14:29:00,41.2,24.0,30.04,SSE,148,0.0,-999.0,50,-99.99,,,0.00,weatherlink.com 1.10,2013-01-31 19:29:00,
2013-01-31 14:44:00,41.5,24.0,30.04,WSW,241,4.0,-999.0,50,-99.99,,,0.00,weatherlink.com 1.10,2013-01-31 19:44:00,
2013-01-31 14:59:00,42.0,24.0,30.04,South,178,6.0,-999.0,49,-99.99,,,0.00,weatherlink.com 1.10,2013-01-31 19:59:00,
2013-01-31 15:14:00,41.8,23.0,30.05,SSW,199,3.0,-999.0,47,-99.99,,,0.00,weatherlink.com 1.10,2013-01-31 20:14:00,
2013-01-31 15:29:00,42.6,23.0,30.04,NNW,331,3.0,-999.0,47,-99.99,,,0.00,weatherlink.com 1.10,2013-01-31 20:29:00,
2013-01-31 15:44:00,43.1,24.0,30.05,NE,43,6.0,-999.0,47,-99.99,,,0.00,weatherlink.com 1.10,2013-01-31 20:44:00,
2013-01-31 15:59:00,42.9,24.0,30.04,SW,216,3.0,-999.0,48,-99.99,,,0.00,weatherlink.com 1.10,2013-01-31 20:59:00,
2013-01-31 16:14:00,42.2,23.0,30.05,SW,219,0.0,-999.0,46,-99.99,,,0.00,weatherlink.com 1.10,2013-01-31 21:14:00,
2013-01-31 16:29:00,42.5,23.0,30.04,NW,320,5.0,-999.0,47,-99.99,,,0.00,weatherlink.com 1.10,2013-01-31 21:29:00,
2013-01-31 16:44:00,42.3,24.0,30.05,NNW,340,4.0,-999.0,48,-99.99,,,0.00,weatherlink.com 1.10,2013-01-31 21:44:00,
2013-01-31 16:59:00,42.5,24.0,30.05,North,350,0.0,-999.0,49,-99.99,,,0.00,weatherlink.com 1.10,2013-01-31 21:59:00,
2013-01-31 17:14:00,42.4,24.0,30.05,NW,314,0.0,-999.0,48,-99.99,,,0.00,weatherlink.com 1.10,2013-01-31 22:14:00,
2013-01-31 17:29:00,42.0,24.0,30.05,NNE,25,0.0,-999.0,50,-99.99,,,0.00,weatherlink.com 1.10,2013-01-31 22:29:00,
2013-01-31 17:44:00,41.7,24.0,30.05,South,182,2.0,-999.0,50,-99.99,,,0.00,weatherlink.com 1.10,2013-01-31 22:44:00,
2013-01-31 17:59:00,41.4,24.0,30.05,NNW,342,4.0,-999.0,51,-99.99,,,0.00,weatherlink.com 1.10,2013-01-31 22:59:00,
2013-01-31 18:14:00,41.0,24.0,30.05,NNW,342,3.0,-999.0,52,-99.99,,,0.00,weatherlink.com 1.10,2013-01-31 23:14:00,
2013-01-31 18:29:00,40.6,24.0,30.07,SSE,152,0.0,-999.0,53,-99.99,,,0.00,weatherlink.com 1.10,2013-01-31 23:29:00,
2013-01-31 18:44:00,40.0,25.0,30.07,South,189,0.0,-999.0,55,-99.99,,,0.00,weatherlink.com 1.10,2013-01-31 23:44:00,
2013-01-31 18:59:00,39.3,25.0,30.07,NE,35,1.0,-999.0,57,-99.99,,,0.00,weatherlink.com 1.10,2013-01-31 23:59:00,
2013-01-31 19:14:00,39.1,25.0,30.07,North,355,1.0,-999.0,57,-99.99,,,0.00,weatherlink.com 1.10,2013-02-01 00:14:00,
2013-01-31 19:29:00,38.9,25.0,30.08,NW,309,0.0,-999.0,57,-99.99,,,0.00,weatherlink.com 1.10,2013-02-01 00:29:00,
2013-01-31 19:44:00,38.8,25.0,30.09,NW,307,0.0,-999.0,58,-99.99,,,0.00,weatherlink.com 1.10,2013-02-01 00:44:00,
2013-01-31 19:59:00,38.4,25.0,30.09,NNW,330,0.0,-999.0,58,-99.99,,,0.00,weatherlink.com 1.10,2013-02-01 00:59:00,
2013-01-31 20:14:00,37.9,25.0,30.09,NNW,330,0.0,-999.0,60,-99.99,,,0.00,weatherlink.com 1.10,2013-02-01 01:14:00,
2013-01-31 20:29:00,37.4,24.0,30.09,NNW,330,0.0,-999.0,60,-99.99,,,0.00,weatherlink.com 1.10,2013-02-01 01:29:00,
2013-01-31 20:44:00,36.9,25.0,30.10,NNW,331,0.0,-999.0,62,-99.99,,,0.00,weatherlink.com 1.10,2013-02-01 01:44:00,
2013-01-31 21:00:00,36.1,25.0,30.11,NNW,330,0.0,-999.0,65,-99.99,,,0.00,weatherlink.com 1.10,2013-02-01 02:00:00,
2013-01-31 21:15:00,35.5,25.0,30.11,NNW,331,0.0,-999.0,66,-99.99,,,0.00,weatherlink.com 1.10,2013-02-01 02:15:00,
2013-01-31 21:30:00,35.3,25.0,30.11,NNW,331,0.0,-999.0,67,-99.99,,,0.00,weatherlink.com 1.10,2013-02-01 02:30:00,
2013-01-31 21:45:00,35.6,25.0,30.11,NNW,331,0.0,-999.0,66,-99.99,,,0.00,weatherlink.com 1.10,2013-02-01 02:45:00,
2013-01-31 22:00:00,35.5,25.0,30.11,NNW,331,0.0,-999.0,65,-99.99,,,0.00,weatherlink.com 1.10,2013-02-01 03:00:00,
2013-01-31 22:15:00,35.7,25.0,30.11,North,349,0.0,-999.0,65,-99.99,,,0.00,weatherlink.com 1.10,2013-02-01 03:15:00,
2013-01-31 22:30:00,35.6,26.0,30.11,NNW,348,0.0,-999.0,68,-99.99,,,0.00,weatherlink.com 1.10,2013-02-01 03:30:00,
2013-01-31 22:45:00,35.2,26.0,30.11,North,355,0.0,-999.0,68,-99.99,,,0.00,weatherlink.com 1.10,2013-02-01 03:45:00,
2013-01-31 23:00:00,35.7,25.0,30.12,North,5,0.0,-999.0,66,-99.99,,,0.00,weatherlink.com 1.10,2013-02-01 04:00:00,
2013-01-31 23:15:00,36.9,26.0,30.12,North,360,3.0,-999.0,64,-99.99,,,0.00,weatherlink.com 1.10,2013-02-01 04:15:00,
2013-01-31 23:30:00,37.4,26.0,30.12,NNW,336,0.0,-999.0,64,-99.99,,,0.00,weatherlink.com 1.10,2013-02-01 04:30:00,
2013-01-31 23:45:00,37.4,26.0,30.11,NNW,331,0.0,-999.0,63,-99.99,,,0.00,weatherlink.com 1.10,2013-02-01 04:45:00,